createdAt,value
2023-01-29T00:01:05.583Z,2.3
2023-01-29T00:06:07.600Z,2.3
2023-01-29T00:11:09.807Z,2.3
2023-01-29T00:16:11.896Z,2.2
2023-01-29T00:21:13.921Z,2.2
2023-01-29T00:26:16.142Z,2.2
2023-01-29T00:31:19.054Z,2.2
2023-01-29T00:36:21.913Z,2.2
2023-01-29T00:41:25.273Z,2.2
2023-01-29T00:46:27.478Z,2.2
2023-01-29T00:51:29.553Z,2.2
2023-01-29T00:56:31.585Z,2.1
2023-01-29T01:01:34.611Z,2
2023-01-29T01:06:36.983Z,2
2023-01-29T01:11:39.015Z,2
2023-01-29T01:16:41.151Z,2.1
2023-01-29T01:21:43.241Z,2.1
2023-01-29T01:26:45.428Z,2
2023-01-29T01:31:47.481Z,2
2023-01-29T01:36:49.563Z,2
2023-01-29T01:41:51.695Z,2
2023-01-29T01:46:53.828Z,2
2023-01-29T01:51:55.855Z,1.9
2023-01-29T01:56:57.834Z,1.9
2023-01-29T02:02:00.051Z,2
2023-01-29T02:07:02.165Z,1.9
2023-01-29T02:12:04.249Z,1.9
2023-01-29T02:17:06.789Z,2
2023-01-29T02:22:08.922Z,2
2023-01-29T02:27:10.983Z,2
2023-01-29T02:32:13.015Z,2
2023-01-29T02:37:15.323Z,2
2023-01-29T02:42:17.423Z,2
2023-01-29T02:47:20.294Z,1.8
2023-01-29T02:52:22.349Z,1.8
2023-01-29T02:57:24.417Z,1.8
2023-01-29T03:02:26.524Z,1.9
2023-01-29T03:07:28.655Z,1.9
2023-01-29T03:12:30.823Z,1.9
2023-01-29T03:17:32.946Z,1.8
2023-01-29T03:22:35.021Z,1.9
2023-01-29T03:27:37.213Z,1.6
2023-01-29T03:32:39.264Z,1.6
2023-01-29T03:37:41.488Z,1.7
2023-01-29T03:42:44.968Z,1.7
2023-01-29T03:47:47.114Z,1.7
2023-01-29T03:52:49.394Z,1.8
2023-01-29T03:57:51.398Z,1.8
2023-01-29T04:02:53.404Z,1.7
2023-01-29T04:07:55.410Z,1.7
2023-01-29T04:17:57.921Z,1.6
2023-01-29T04:22:59.923Z,1.6
2023-01-29T04:28:02.029Z,1.6
2023-01-29T04:33:04.022Z,1.7
2023-01-29T04:38:06.011Z,1.6
2023-01-29T04:43:07.990Z,1.7
2023-01-29T04:48:10.944Z,1.8
2023-01-29T04:53:12.917Z,1.7
2023-01-29T04:58:14.951Z,1.5
2023-01-29T05:03:17.149Z,1.5
2023-01-29T05:08:19.342Z,1.6
2023-01-29T05:13:21.444Z,1.7
2023-01-29T05:18:26.123Z,1.6
2023-01-29T05:23:28.473Z,1.6
2023-01-29T05:28:30.540Z,1.6
2023-01-29T05:33:32.529Z,1.7
2023-01-29T05:38:34.700Z,1.7
2023-01-29T05:43:37.535Z,1.6
2023-01-29T05:48:39.803Z,1.6
2023-01-29T05:53:41.825Z,1.5
2023-01-29T05:58:43.897Z,1.3
2023-01-29T06:03:45.972Z,1.4
2023-01-29T06:08:47.978Z,1.3
2023-01-29T06:13:50.062Z,1.5
2023-01-29T06:18:52.210Z,1.6
2023-01-29T06:23:54.885Z,1.6
2023-01-29T06:28:57.027Z,1.5
2023-01-29T06:33:58.991Z,1.5
2023-01-29T06:39:01.059Z,1.4
2023-01-29T06:44:03.213Z,1.5
2023-01-29T06:49:05.370Z,1.5
2023-01-29T06:54:07.413Z,1.4
2023-01-29T06:59:09.364Z,1.4
2023-01-29T07:04:11.404Z,1.6
2023-01-29T07:09:13.640Z,1.8
2023-01-29T07:14:15.631Z,1.9
2023-01-29T07:19:18.068Z,1.7
2023-01-29T07:24:20.656Z,2
2023-01-29T07:29:23.540Z,2
2023-01-29T07:34:25.660Z,2
2023-01-29T07:39:27.806Z,2
2023-01-29T07:44:30.212Z,2
2023-01-29T07:49:32.738Z,1.9
2023-01-29T07:59:36.301Z,1.4
2023-01-29T08:04:38.932Z,1.1
2023-01-29T08:09:41.260Z,1.3
2023-01-29T08:14:43.316Z,1.3
2023-01-29T08:19:45.539Z,1.4
2023-01-29T08:25:08.920Z,1.5
2023-01-29T08:29:51.123Z,1.5
2023-01-29T08:34:53.114Z,1.5
2023-01-29T08:39:56.021Z,1.8
2023-01-29T08:44:58.328Z,1.8
2023-01-29T08:50:01.373Z,1.8
2023-01-29T08:55:03.431Z,1.8
2023-01-29T09:00:05.695Z,1.7
2023-01-29T09:05:07.852Z,1.7
2023-01-29T09:10:10.079Z,1.6
2023-01-29T09:15:12.174Z,1.7
2023-01-29T09:20:14.767Z,2
2023-01-29T09:25:18.483Z,2.1
2023-01-29T09:30:22.095Z,2.4
2023-01-29T09:35:24.971Z,2.5
2023-01-29T09:40:27.496Z,2.5
2023-01-29T09:45:33.364Z,2.5
2023-01-29T09:50:36.164Z,2.4
2023-01-29T09:55:39.130Z,2.5
2023-01-29T10:00:42.372Z,2.7
2023-01-29T10:05:45.307Z,2.8
2023-01-29T10:10:48.616Z,2.4
2023-01-29T10:15:51.568Z,2.3
2023-01-29T10:20:58.163Z,2.5
2023-01-29T10:26:01.653Z,2.7
2023-01-29T10:31:04.600Z,2.8
2023-01-29T10:36:07.634Z,2.8
2023-01-29T10:41:12.246Z,2.7
2023-01-29T10:46:15.345Z,2.6
2023-01-29T10:51:18.427Z,2.5
2023-01-29T10:56:25.243Z,2.6
2023-01-29T11:01:28.144Z,2.6
2023-01-29T11:06:30.517Z,2.6
2023-01-29T11:11:32.956Z,2.7
2023-01-29T11:16:35.326Z,2.7
2023-01-29T11:21:37.878Z,2.6
2023-01-29T11:26:40.114Z,2.5
2023-01-29T11:31:42.420Z,2.6
2023-01-29T11:36:44.655Z,2.6
2023-01-29T11:41:46.833Z,2.6
2023-01-29T11:46:49.450Z,2.6
2023-01-29T11:51:51.794Z,2.6
2023-01-29T11:56:53.960Z,2.8
2023-01-29T12:01:56.065Z,2.9
2023-01-29T12:06:58.275Z,2.7
2023-01-29T12:12:00.721Z,2.4
2023-01-29T12:17:05.398Z,2.5
2023-01-29T12:22:07.741Z,2.5
2023-01-29T12:27:09.797Z,2.5
2023-01-29T12:32:12.409Z,2.3
2023-01-29T12:37:14.883Z,2.2
2023-01-29T12:42:16.900Z,2.2
2023-01-29T12:47:19.438Z,2.2
2023-01-29T12:52:22.639Z,2.3
2023-01-29T12:57:25.386Z,2.3
2023-01-29T13:02:27.799Z,2.3
2023-01-29T13:07:30.284Z,2.3
2023-01-29T13:12:32.936Z,2.2
2023-01-29T13:17:35.316Z,2.1
2023-01-29T13:22:38.308Z,2.2
2023-01-29T13:27:40.829Z,2.2
2023-01-29T13:32:43.039Z,2.1
2023-01-29T13:37:45.165Z,2.2
2023-01-29T13:42:47.245Z,2.2
2023-01-29T13:47:49.222Z,2.2
2023-01-29T13:52:51.400Z,2.2
2023-01-29T13:57:57.530Z,2
2023-01-29T14:02:59.598Z,2
2023-01-29T14:08:01.766Z,2.1
2023-01-29T14:13:03.934Z,2.1
2023-01-29T14:18:06.044Z,2.1
2023-01-29T14:23:08.034Z,2.1
2023-01-29T14:28:13.519Z,1.6
2023-01-29T14:33:15.680Z,1.6
2023-01-29T14:38:17.656Z,1.8
2023-01-29T14:43:19.665Z,1.8
2023-01-29T14:53:23.520Z,1.5
2023-01-29T14:58:25.577Z,1.6
2023-01-29T15:03:28.136Z,1.5
2023-01-29T15:08:30.937Z,1.5
2023-01-29T15:13:33.050Z,1.4
2023-01-29T15:18:35.343Z,1.3
2023-01-29T15:23:37.630Z,1.4
2023-01-29T15:28:40.399Z,1.2
2023-01-29T15:33:46.111Z,1.1
2023-01-29T15:38:48.214Z,1
2023-01-29T15:43:50.272Z,1
2023-01-29T15:48:53.230Z,0.6
2023-01-29T15:53:55.784Z,0.6
2023-01-29T15:58:58.264Z,0.3
2023-01-29T16:04:01.764Z,0.1
2023-01-29T16:09:04.086Z,0.1
2023-01-29T16:14:06.719Z,0.1
2023-01-29T16:19:09.453Z,0.1
2023-01-29T16:24:11.749Z,0.1
2023-01-29T16:29:14.521Z,0
2023-01-29T16:34:17.270Z,0.1
2023-01-29T16:39:20.698Z,0.2
2023-01-29T16:44:22.827Z,0.2
2023-01-29T16:49:25.007Z,0.3
2023-01-29T16:54:27.193Z,0.2
2023-01-29T16:59:29.344Z,0.3
2023-01-29T17:04:32.378Z,0.4
2023-01-29T17:09:36.363Z,0.3
2023-01-29T17:14:38.925Z,0.4
2023-01-29T17:19:42.266Z,0.4
2023-01-29T17:24:48.084Z,0.4
2023-01-29T17:27:21.095Z,0.5
2023-01-29T17:31:07.664Z,0.7
2023-01-29T17:34:24.906Z,0.8
2023-01-29T17:36:51.354Z,1
